Terminal Aerodrome Forecast
Issued by NWS

Home | Current Version | Previous Version | Text Only | Print | Product List | Glossary On
Versions: 1 2 3 4 5 6 7 8 9 10 11 12 13 14 15 16 17
000
FTUS42 TJSJ 172000 AAA
TAFJBQ
TAF AMD
TJBQ 172022Z 1720/1818 05012KT P6SM SCT025
     FM172300 08009KT P6SM FEW025
     FM181400 07014KT P6SM SCT025=

USA.gov is the U.S. government's official web portal to all federal, state and local government web resources and services.